Time;durP1;ratioP1;P1;durP2;ratioP2;P2;SDS_P1;SDS_P2;PMS_P1;PMS_P2;Temp;Humidity;BMP_temperature;BMP_pressure;BME280_temperature;BME280_humidity;BME280_pressure;Samples;Min_cycle;Max_cycle;Signal;HPM_P1;HPM_P2
2023/04/14 00:00:42;;;;;;;33.42;6.10;;;;;;;;;;5071887;28;20032;-36
2023/04/14 00:03:09;;;;;;;37.67;5.65;;;;;;;;;;5071463;28;20114;-36
2023/04/14 00:05:36;;;;;;;38.45;6.53;;;;;;;;;;5072105;28;20020;-37
2023/04/14 00:08:03;;;;;;;43.38;6.40;;;;;;;;;;5070471;28;20040;-36
2023/04/14 00:10:31;;;;;;;44.70;6.10;;;;;;;;;;5061151;28;20110;-37
2023/04/14 00:12:59;;;;;;;36.70;5.82;;;;;;;;;;5065857;28;20044;-39
2023/04/14 00:15:26;;;;;;;39.05;6.82;;;;;;;;;;5071319;28;20040;-37
2023/04/14 00:17:57;;;;;;;36.92;6.65;;;;;;;;;;5069965;28;20020;-37
2023/04/14 00:20:27;;;;;;;46.95;7.47;;;;;;;;;;5067278;28;20059;-36
2023/04/14 00:22:55;;;;;;;91.10;19.73;;;;;;;;;;5069810;28;20035;-37
2023/04/14 00:25:22;;;;;;;127.03;29.00;;;;;;;;;;5065957;28;20606;-38
2023/04/14 00:27:51;;;;;;;230.00;54.47;;;;;;;;;;5070395;28;20032;-36
2023/04/14 00:30:22;;;;;;;335.58;95.85;;;;;;;;;;5071618;28;20036;-36
2023/04/14 00:32:54;;;;;;;471.90;179.95;;;;;;;;;;5070978;28;20036;-36
2023/04/14 00:35:25;;;;;;;592.63;241.32;;;;;;;;;;5070865;28;20186;-36
2023/04/14 00:37:55;;;;;;;;;;;;;;;;;;5072366;28;20032;-37
2023/04/14 00:40:29;;;;;;;518.35;217.02;;;;;;;;;;5071182;28;20363;-37
2023/04/14 00:43:02;;;;;;;515.13;204.20;;;;;;;;;;5071614;28;20045;-36
2023/04/14 00:45:39;;;;;;;460.02;182.25;;;;;;;;;;5070922;28;20028;-36
2023/04/14 00:48:13;;;;;;;470.63;178.38;;;;;;;;;;5069905;28;20493;-37
2023/04/14 00:50:46;;;;;;;438.33;171.15;;;;;;;;;;5071599;28;20398;-36
2023/04/14 00:53:18;;;;;;;443.05;167.32;;;;;;;;;;5071525;28;20033;-37
2023/04/14 00:55:49;;;;;;;411.58;156.35;;;;;;;;;;5071225;28;20032;-36
2023/04/14 00:58:18;;;;;;;419.73;153.05;;;;;;;;;;5071498;28;20036;-36
2023/04/14 01:00:54;;;;;;;407.27;146.45;;;;;;;;;;5071013;28;20415;-37
2023/04/14 01:03:27;;;;;;;429.42;152.27;;;;;;;;;;5070206;28;20586;-36
2023/04/14 01:06:00;;;;;;;408.02;143.30;;;;;;;;;;5070743;28;20036;-36
2023/04/14 01:08:31;;;;;;;376.50;134.25;;;;;;;;;;5070653;28;20085;-37
2023/04/14 01:11:10;;;;;;;373.80;135.50;;;;;;;;;;5070827;28;20033;-38
2023/04/14 01:14:02;;;;;;;370.98;133.65;;;;;;;;;;5070992;28;20081;-37
2023/04/14 01:16:41;;;;;;;376.25;131.75;;;;;;;;;;5071282;28;20502;-36
2023/04/14 01:19:14;;;;;;;374.50;128.93;;;;;;;;;;5069666;28;20076;-36
2023/04/14 01:21:48;;;;;;;389.65;134.13;;;;;;;;;;5070741;28;20482;-35
2023/04/14 01:24:37;;;;;;;415.90;141.43;;;;;;;;;;5068637;28;20102;-34
2023/04/14 01:27:16;;;;;;;413.80;143.77;;;;;;;;;;5070249;28;20159;-35
2023/04/14 01:30:10;;;;;;;385.30;134.82;;;;;;;;;;5071281;28;20043;-35
2023/04/14 01:32:45;;;;;;;353.33;131.10;;;;;;;;;;5067838;28;20072;-36
2023/04/14 01:35:21;;;;;;;371.05;131.55;;;;;;;;;;5060288;28;20126;-36
2023/04/14 01:37:59;;;;;;;367.42;131.20;;;;;;;;;;5060114;28;20113;-36
2023/04/14 01:40:30;;;;;;;366.90;127.07;;;;;;;;;;5059602;28;20166;-36
2023/04/14 01:43:05;;;;;;;323.23;117.82;;;;;;;;;;5060884;28;20153;-36
2023/04/14 01:45:45;;;;;;;328.75;118.82;;;;;;;;;;5059857;28;20467;-36
2023/04/14 01:48:16;;;;;;;315.83;115.38;;;;;;;;;;5060571;28;20051;-36
2023/04/14 01:50:47;;;;;;;301.95;114.78;;;;;;;;;;5064767;28;20051;-36
2023/04/14 01:53:20;;;;;;;294.73;112.72;;;;;;;;;;5050673;28;20051;-35
2023/04/14 01:55:54;;;;;;;295.77;110.93;;;;;;;;;;5050734;28;20040;-36
2023/04/14 01:58:28;;;;;;;293.33;111.10;;;;;;;;;;5068263;28;20123;-36
2023/04/14 02:01:01;;;;;;;285.80;108.10;;;;;;;;;;5055494;28;20060;-35
2023/04/14 02:03:34;;;;;;;270.77;105.35;;;;;;;;;;5058220;28;20060;-36
2023/04/14 02:06:07;;;;;;;262.23;105.13;;;;;;;;;;5060156;28;20044;-36
2023/04/14 02:08:41;;;;;;;260.67;102.82;;;;;;;;;;5059345;28;20029;-37
2023/04/14 02:11:15;;;;;;;248.60;101.13;;;;;;;;;;5059291;28;20087;-36
2023/04/14 02:13:45;;;;;;;246.10;101.80;;;;;;;;;;5060174;28;20036;-36
2023/04/14 02:16:16;;;;;;;259.23;99.03;;;;;;;;;;5062611;28;20032;-36
2023/04/14 02:18:49;;;;;;;251.77;99.88;;;;;;;;;;5070823;28;20057;-36
2023/04/14 02:21:23;;;;;;;241.32;96.43;;;;;;;;;;5071245;28;20068;-35
2023/04/14 02:23:56;;;;;;;242.05;97.43;;;;;;;;;;5071020;28;20033;-36
2023/04/14 02:26:32;;;;;;;232.73;92.65;;;;;;;;;;5071161;28;20047;-35
2023/04/14 02:29:19;;;;;;;230.90;92.18;;;;;;;;;;5070948;28;20040;-36
2023/04/14 02:31:55;;;;;;;222.82;92.30;;;;;;;;;;5071108;28;20086;-35
2023/04/14 02:34:31;;;;;;;226.57;93.22;;;;;;;;;;5071077;28;20109;-36
2023/04/14 02:37:04;;;;;;;218.93;85.32;;;;;;;;;;5071021;28;20032;-36
2023/04/14 02:39:46;;;;;;;214.15;85.90;;;;;;;;;;5074562;28;20036;-35
2023/04/14 02:42:19;;;;;;;208.73;84.35;;;;;;;;;;5074271;28;20486;-35
2023/04/14 02:44:53;;;;;;;196.48;81.90;;;;;;;;;;5074447;28;20048;-36
2023/04/14 02:47:35;;;;;;;189.35;82.68;;;;;;;;;;5073982;28;20055;-35
2023/04/14 02:50:05;;;;;;;;;;;;;;;;;;5075090;28;20037;-36
2023/04/14 02:52:39;;;;;;;182.00;79.22;;;;;;;;;;5074505;28;20300;-36
2023/04/14 02:55:12;;;;;;;192.80;78.95;;;;;;;;;;5074417;28;20108;-35
2023/04/14 02:57:46;;;;;;;188.07;77.40;;;;;;;;;;5074373;28;20029;-35
2023/04/14 03:00:19;;;;;;;178.70;74.60;;;;;;;;;;5074412;28;20036;-35
2023/04/14 03:02:52;;;;;;;172.32;73.72;;;;;;;;;;5073805;28;20060;-36
2023/04/14 03:05:27;;;;;;;185.45;75.88;;;;;;;;;;5074226;28;20037;-36
2023/04/14 03:08:02;;;;;;;175.50;74.45;;;;;;;;;;5074190;28;20399;-35
2023/04/14 03:10:36;;;;;;;173.73;74.03;;;;;;;;;;5074251;28;20050;-35
2023/04/14 03:13:10;;;;;;;162.63;70.18;;;;;;;;;;5074170;28;20115;-36
2023/04/14 03:15:43;;;;;;;169.75;70.30;;;;;;;;;;5074092;28;20397;-35
2023/04/14 03:18:16;;;;;;;161.43;70.00;;;;;;;;;;5074155;28;20040;-35
2023/04/14 03:20:50;;;;;;;149.77;68.10;;;;;;;;;;5074115;28;20437;-35
2023/04/14 03:23:24;;;;;;;146.27;65.53;;;;;;;;;;5074020;28;20383;-35
2023/04/14 03:25:58;;;;;;;148.57;66.03;;;;;;;;;;5073827;28;20143;-36
2023/04/14 03:28:32;;;;;;;150.40;65.60;;;;;;;;;;5073994;28;20035;-35
2023/04/14 03:31:07;;;;;;;144.18;64.53;;;;;;;;;;5073900;28;20042;-35
2023/04/14 03:33:42;;;;;;;140.30;60.25;;;;;;;;;;5073822;28;20059;-36
2023/04/14 03:36:15;;;;;;;139.32;62.53;;;;;;;;;;5073204;28;20036;-36
2023/04/14 03:38:49;;;;;;;146.98;61.55;;;;;;;;;;5073779;28;20064;-35
2023/04/14 03:41:23;;;;;;;136.38;61.20;;;;;;;;;;5073393;28;20044;-35
2023/04/14 03:43:57;;;;;;;136.73;59.60;;;;;;;;;;5072232;28;20087;-35
2023/04/14 03:46:30;;;;;;;138.70;57.75;;;;;;;;;;5073566;28;20044;-35
2023/04/14 03:49:06;;;;;;;130.63;57.45;;;;;;;;;;5073095;28;20024;-36
2023/04/14 03:51:39;;;;;;;129.02;57.45;;;;;;;;;;5072045;28;20052;-35
2023/04/14 03:54:14;;;;;;;127.38;57.53;;;;;;;;;;5073467;28;20147;-35
2023/04/14 03:56:50;;;;;;;124.50;55.28;;;;;;;;;;5073113;28;20498;-35
2023/04/14 03:59:25;;;;;;;117.78;53.67;;;;;;;;;;5073082;28;20040;-36
2023/04/14 04:01:59;;;;;;;125.82;53.58;;;;;;;;;;5073255;28;20039;-35
2023/04/14 04:04:34;;;;;;;113.93;53.78;;;;;;;;;;5073198;28;20075;-36
2023/04/14 04:07:09;;;;;;;105.65;51.33;;;;;;;;;;5072823;28;20116;-35
2023/04/14 04:09:44;;;;;;;116.20;53.08;;;;;;;;;;5072811;28;20044;-35
2023/04/14 04:12:19;;;;;;;111.80;50.60;;;;;;;;;;5072683;28;20042;-35
2023/04/14 04:14:53;;;;;;;106.35;49.38;;;;;;;;;;5072827;28;20052;-35
2023/04/14 04:17:25;;;;;;;112.35;50.78;;;;;;;;;;5072634;28;20063;-35
2023/04/14 04:20:00;;;;;;;106.03;48.13;;;;;;;;;;5072929;28;20352;-35
2023/04/14 04:22:33;;;;;;;107.70;49.15;;;;;;;;;;5072394;28;20040;-35
2023/04/14 04:25:07;;;;;;;99.55;47.00;;;;;;;;;;5072779;28;20032;-36
2023/04/14 04:27:41;;;;;;;101.50;46.80;;;;;;;;;;5072799;28;20516;-36
2023/04/14 04:30:15;;;;;;;90.13;46.83;;;;;;;;;;5072777;28;20032;-35
2023/04/14 04:32:48;;;;;;;99.18;45.38;;;;;;;;;;5072687;28;20029;-36
2023/04/14 04:35:22;;;;;;;94.75;45.00;;;;;;;;;;5072602;28;20029;-35
2023/04/14 04:37:56;;;;;;;91.38;44.10;;;;;;;;;;5072573;28;20032;-35
2023/04/14 04:40:30;;;;;;;90.97;43.60;;;;;;;;;;5072529;28;20112;-35
2023/04/14 04:43:04;;;;;;;92.03;43.75;;;;;;;;;;5072036;28;20067;-35
2023/04/14 04:45:58;;;;;;;85.03;41.28;;;;;;;;;;5072396;28;20028;-35
2023/04/14 04:48:30;;;;;;;82.32;40.72;;;;;;;;;;5067330;28;20076;-36
2023/04/14 04:51:03;;;;;;;89.68;42.40;;;;;;;;;;5072286;28;20035;-36
2023/04/14 04:53:35;;;;;;;87.05;40.40;;;;;;;;;;5072273;28;20036;-35
2023/04/14 04:56:09;;;;;;;96.18;42.88;;;;;;;;;;5071785;28;20093;-35
2023/04/14 04:58:41;;;;;;;86.65;40.78;;;;;;;;;;5072225;28;20029;-35
2023/04/14 05:01:15;;;;;;;86.80;41.40;;;;;;;;;;5072082;28;20174;-36
2023/04/14 05:03:47;;;;;;;87.53;41.55;;;;;;;;;;5071283;28;20048;-35
2023/04/14 05:06:21;;;;;;;75.38;38.63;;;;;;;;;;5072068;28;20779;-35
2023/04/14 05:08:57;;;;;;;87.75;39.90;;;;;;;;;;5072094;28;20111;-35
2023/04/14 05:11:30;;;;;;;77.97;37.33;;;;;;;;;;5072057;28;20033;-35
2023/04/14 05:14:04;;;;;;;76.00;35.90;;;;;;;;;;5072059;28;20043;-35
2023/04/14 05:16:37;;;;;;;76.35;36.83;;;;;;;;;;5071841;28;20082;-35
2023/04/14 05:19:10;;;;;;;78.43;36.88;;;;;;;;;;5071554;28;20444;-35
2023/04/14 05:21:44;;;;;;;79.45;37.20;;;;;;;;;;5071897;28;20089;-35
2023/04/14 05:24:17;;;;;;;73.45;35.45;;;;;;;;;;5070553;28;20099;-35
2023/04/14 05:26:50;;;;;;;70.35;34.78;;;;;;;;;;5071870;28;20040;-35
2023/04/14 05:29:19;;;;;;;69.55;34.28;;;;;;;;;;5071866;28;20474;-35
2023/04/14 05:31:46;;;;;;;73.85;34.80;;;;;;;;;;5070809;28;20035;-35
2023/04/14 05:34:13;;;;;;;69.78;33.45;;;;;;;;;;5071691;28;20119;-36
2023/04/14 05:36:41;;;;;;;63.45;32.47;;;;;;;;;;5071713;28;20371;-35
2023/04/14 05:39:08;;;;;;;67.40;33.40;;;;;;;;;;5071745;28;20039;-35
2023/04/14 05:41:35;;;;;;;67.95;33.33;;;;;;;;;;5071657;28;20399;-35
2023/04/14 05:44:02;;;;;;;67.65;32.90;;;;;;;;;;5071448;28;20068;-35
2023/04/14 05:46:29;;;;;;;64.57;32.33;;;;;;;;;;5071561;28;20082;-35
2023/04/14 05:48:56;;;;;;;64.38;33.35;;;;;;;;;;5071551;28;20040;-35
2023/04/14 05:51:23;;;;;;;61.28;31.58;;;;;;;;;;5071618;28;20028;-35
2023/04/14 05:53:50;;;;;;;62.47;31.00;;;;;;;;;;5071545;28;20078;-35
2023/04/14 05:56:17;;;;;;;60.33;30.98;;;;;;;;;;5071431;28;20042;-35
2023/04/14 05:58:44;;;;;;;65.80;32.15;;;;;;;;;;5071496;28;20017;-35
2023/04/14 06:01:11;;;;;;;60.80;30.58;;;;;;;;;;5070297;28;20090;-36
2023/04/14 06:03:38;;;;;;;58.78;29.50;;;;;;;;;;5070949;28;20052;-35
2023/04/14 06:06:05;;;;;;;58.60;28.83;;;;;;;;;;5071601;28;20374;-35
2023/04/14 06:08:32;;;;;;;51.80;28.23;;;;;;;;;;5071330;28;20040;-35
2023/04/14 06:10:59;;;;;;;54.35;27.38;;;;;;;;;;5071306;28;20103;-35
2023/04/14 06:13:26;;;;;;;58.65;29.65;;;;;;;;;;5073155;28;20043;-35
2023/04/14 06:15:54;;;;;;;54.58;28.55;;;;;;;;;;5075209;28;20033;-35
2023/04/14 06:18:21;;;;;;;55.83;27.60;;;;;;;;;;5075203;28;20040;-36
2023/04/14 06:20:48;;;;;;;55.35;27.85;;;;;;;;;;5075237;28;20035;-36
2023/04/14 06:23:15;;;;;;;51.13;26.58;;;;;;;;;;5075145;28;20498;-36
2023/04/14 06:25:42;;;;;;;48.83;26.13;;;;;;;;;;5074987;28;20033;-36
2023/04/14 06:28:09;;;;;;;53.95;26.17;;;;;;;;;;5075130;28;20039;-36
2023/04/14 06:30:36;;;;;;;49.22;25.52;;;;;;;;;;5075040;28;20753;-36
2023/04/14 06:33:03;;;;;;;44.10;24.65;;;;;;;;;;5074955;28;20035;-36
2023/04/14 06:35:30;;;;;;;50.13;25.67;;;;;;;;;;5074817;28;20558;-36
2023/04/14 06:37:57;;;;;;;46.72;25.23;;;;;;;;;;5074944;28;20024;-36
2023/04/14 06:40:24;;;;;;;46.90;23.88;;;;;;;;;;5074934;28;20027;-36
2023/04/14 06:42:51;;;;;;;47.95;24.83;;;;;;;;;;5074735;28;20032;-36
2023/04/14 06:45:18;;;;;;;50.15;24.45;;;;;;;;;;5074666;28;20540;-36
2023/04/14 06:47:45;;;;;;;43.03;23.27;;;;;;;;;;5074754;28;20387;-36
2023/04/14 06:50:13;;;;;;;45.63;23.95;;;;;;;;;;5074684;28;20037;-36
2023/04/14 06:52:40;;;;;;;45.95;25.23;;;;;;;;;;5074664;28;20024;-36
2023/04/14 06:55:07;;;;;;;46.00;25.20;;;;;;;;;;5074578;28;20079;-36
2023/04/14 06:57:34;;;;;;;44.60;23.65;;;;;;;;;;5074508;28;20029;-36
2023/04/14 07:00:03;;;;;;;48.70;24.02;;;;;;;;;;5074555;28;20035;-36
2023/04/14 07:02:30;;;;;;;46.35;23.08;;;;;;;;;;5074051;28;20506;-36
2023/04/14 07:04:56;;;;;;;39.92;21.35;;;;;;;;;;5074419;28;20165;-36
2023/04/14 07:07:24;;;;;;;47.75;23.73;;;;;;;;;;5074336;28;20399;-36
2023/04/14 07:09:51;;;;;;;46.08;22.70;;;;;;;;;;5074322;28;20025;-36
2023/04/14 07:12:18;;;;;;;39.25;20.98;;;;;;;;;;5074307;28;20032;-36
2023/04/14 07:14:50;;;;;;;38.22;20.90;;;;;;;;;;5074213;28;20044;-36
2023/04/14 07:17:18;;;;;;;39.40;20.10;;;;;;;;;;5074198;28;20029;-37
2023/04/14 07:19:45;;;;;;;39.20;21.75;;;;;;;;;;5074123;28;20217;-37
2023/04/14 07:22:12;;;;;;;41.10;21.40;;;;;;;;;;5074095;28;20028;-37
2023/04/14 07:24:39;;;;;;;40.88;21.05;;;;;;;;;;5072701;28;20047;-37
2023/04/14 07:27:06;;;;;;;34.50;19.30;;;;;;;;;;5074124;28;20024;-37
2023/04/14 07:29:33;;;;;;;34.63;19.13;;;;;;;;;;5060573;28;20029;-37
2023/04/14 07:32:00;;;;;;;37.22;18.90;;;;;;;;;;5053917;28;20665;-37
2023/04/14 07:34:27;;;;;;;33.75;19.27;;;;;;;;;;5053817;28;20060;-37
2023/04/14 07:36:54;;;;;;;35.97;18.85;;;;;;;;;;5054015;28;20458;-37
2023/04/14 07:39:21;;;;;;;32.55;18.90;;;;;;;;;;5053856;28;20051;-37
2023/04/14 07:41:48;;;;;;;34.85;18.90;;;;;;;;;;5053770;28;20475;-37
2023/04/14 07:44:15;;;;;;;35.17;18.48;;;;;;;;;;5053490;28;20033;-37
2023/04/14 07:46:42;;;;;;;32.47;17.83;;;;;;;;;;5053664;28;20033;-37
2023/04/14 07:49:09;;;;;;;33.30;18.85;;;;;;;;;;5052301;28;20025;-37
2023/04/14 07:51:36;;;;;;;30.15;17.45;;;;;;;;;;5053537;28;20037;-37
2023/04/14 07:54:04;;;;;;;33.92;17.50;;;;;;;;;;5053403;28;20029;-37
2023/04/14 07:56:31;;;;;;;29.30;16.48;;;;;;;;;;5053631;28;20395;-37
2023/04/14 07:58:58;;;;;;;31.17;17.33;;;;;;;;;;5053450;28;20060;-37
2023/04/14 08:01:25;;;;;;;30.73;16.85;;;;;;;;;;5053404;28;20025;-37
2023/04/14 08:03:52;;;;;;;32.13;17.55;;;;;;;;;;5053016;28;20045;-37
2023/04/14 08:06:20;;;;;;;33.00;17.48;;;;;;;;;;5053287;28;20043;-37
2023/04/14 08:08:47;;;;;;;27.80;15.60;;;;;;;;;;5053188;28;20476;-37
2023/04/14 08:11:14;;;;;;;29.85;16.33;;;;;;;;;;5053212;28;20391;-37
2023/04/14 08:13:41;;;;;;;29.50;16.52;;;;;;;;;;5053196;28;20371;-37
2023/04/14 08:16:08;;;;;;;26.65;14.90;;;;;;;;;;5053043;28;20048;-37
2023/04/14 08:18:35;;;;;;;25.92;15.30;;;;;;;;;;5053077;28;20021;-37
2023/04/14 08:21:02;;;;;;;28.65;16.63;;;;;;;;;;5052981;28;20525;-37
2023/04/14 08:23:29;;;;;;;27.15;14.70;;;;;;;;;;5215351;22;20682;-35
2023/04/14 08:25:56;;;;;;;24.70;15.18;;;;;;;;;;5071168;28;20059;-39
2023/04/14 08:28:23;;;;;;;29.52;15.25;;;;;;;;;;5072813;28;20104;-38
2023/04/14 08:30:50;;;;;;;28.75;15.15;;;;;;;;;;5072774;28;20474;-38
2023/04/14 08:33:17;;;;;;;27.42;14.52;;;;;;;;;;5072571;28;20020;-38
2023/04/14 08:35:44;;;;;;;26.42;15.25;;;;;;;;;;5072305;28;20078;-38
2023/04/14 08:38:11;;;;;;;24.67;14.38;;;;;;;;;;5072545;28;20497;-38
2023/04/14 08:40:39;;;;;;;24.88;13.93;;;;;;;;;;5072558;28;20115;-38
2023/04/14 08:43:07;;;;;;;23.65;14.07;;;;;;;;;;5072423;28;20064;-38
2023/04/14 08:45:34;;;;;;;25.90;15.00;;;;;;;;;;5072425;28;20024;-38
2023/04/14 08:48:02;;;;;;;22.55;13.27;;;;;;;;;;5072263;28;20025;-38
2023/04/14 08:50:44;;;;;;;23.30;13.98;;;;;;;;;;5072338;28;20031;-38
2023/04/14 08:53:12;;;;;;;20.70;13.83;;;;;;;;;;5072170;28;20037;-38
2023/04/14 08:55:42;;;;;;;28.38;14.77;;;;;;;;;;5072208;28;20259;-38
2023/04/14 08:58:10;;;;;;;22.20;12.70;;;;;;;;;;5072236;28;20059;-38
2023/04/14 09:00:38;;;;;;;22.90;12.57;;;;;;;;;;5072417;28;20028;-38
2023/04/14 09:03:05;;;;;;;25.83;13.30;;;;;;;;;;5072001;28;20111;-38
2023/04/14 09:05:32;;;;;;;26.83;13.82;;;;;;;;;;5072105;28;20016;-40
2023/04/14 09:08:00;;;;;;;21.70;11.70;;;;;;;;;;5071473;28;20043;-38
2023/04/14 09:10:29;;;;;;;22.63;12.60;;;;;;;;;;5070986;28;20032;-37
2023/04/14 09:12:56;;;;;;;21.85;12.93;;;;;;;;;;5065928;28;20032;-38
2023/04/14 09:15:27;;;;;;;23.42;13.40;;;;;;;;;;5060440;28;20037;-38
2023/04/14 09:17:55;;;;;;;22.27;11.85;;;;;;;;;;5059365;28;20040;-36
2023/04/14 09:20:22;;;;;;;23.27;12.18;;;;;;;;;;5070790;28;20029;-36
2023/04/14 09:22:49;;;;;;;23.85;12.75;;;;;;;;;;5062455;28;20044;-38
2023/04/14 09:25:19;;;;;;;23.50;12.13;;;;;;;;;;5062195;28;20132;-40
2023/04/14 09:27:46;;;;;;;18.75;11.15;;;;;;;;;;5060457;28;20036;-38
2023/04/14 09:30:13;;;;;;;19.00;11.05;;;;;;;;;;5059852;28;20074;-36
2023/04/14 09:32:41;;;;;;;21.25;12.02;;;;;;;;;;5059893;28;20070;-37
2023/04/14 09:35:12;;;;;;;20.23;10.88;;;;;;;;;;5060816;28;20036;-39
2023/04/14 09:37:43;;;;;;;19.35;11.23;;;;;;;;;;5055214;28;20041;-39
2023/04/14 09:40:10;;;;;;;19.67;11.15;;;;;;;;;;5071491;28;20104;-36
2023/04/14 09:42:42;;;;;;;19.15;11.05;;;;;;;;;;5070713;28;20047;-37
2023/04/14 09:45:09;;;;;;;23.70;11.57;;;;;;;;;;5070768;28;20090;-38
2023/04/14 09:47:37;;;;;;;17.13;10.02;;;;;;;;;;5070575;28;20036;-36
2023/04/14 09:50:04;;;;;;;21.13;10.93;;;;;;;;;;5053451;28;20032;-37
2023/04/14 09:52:38;;;;;;;20.27;11.15;;;;;;;;;;5070913;28;20100;-37
2023/04/14 09:55:10;;;;;;;26.40;10.32;;;;;;;;;;5071410;28;20024;-38
2023/04/14 09:57:37;;;;;;;;;;;;;;;;;;5071941;28;20020;-36
2023/04/14 10:00:25;;;;;;;17.45;10.25;;;;;;;;;;5071578;28;20362;-38
2023/04/14 10:03:02;;;;;;;17.63;9.23;;;;;;;;;;5071090;28;20420;-37
2023/04/14 10:05:30;;;;;;;16.73;9.57;;;;;;;;;;5071426;28;20029;-38
2023/04/14 10:08:02;;;;;;;24.88;10.07;;;;;;;;;;5071292;28;20440;-37
2023/04/14 10:10:29;;;;;;;16.38;9.18;;;;;;;;;;5071416;28;20439;-37
2023/04/14 10:12:56;;;;;;;18.83;9.07;;;;;;;;;;5071275;28;20103;-38
2023/04/14 10:15:23;;;;;;;19.30;9.30;;;;;;;;;;5071293;28;20020;-37
2023/04/14 10:17:50;;;;;;;18.60;9.18;;;;;;;;;;5071337;28;20024;-38
2023/04/14 10:20:17;;;;;;;18.67;8.63;;;;;;;;;;5071336;28;20020;-37
2023/04/14 10:22:44;;;;;;;19.70;9.00;;;;;;;;;;5071122;28;20078;-37
2023/04/14 10:25:13;;;;;;;14.90;8.18;;;;;;;;;;5071056;28;20059;-38
2023/04/14 10:27:40;;;;;;;15.68;7.85;;;;;;;;;;5070990;28;20478;-38
2023/04/14 10:30:07;;;;;;;16.00;8.95;;;;;;;;;;5071189;28;20070;-37
2023/04/14 10:32:36;;;;;;;14.07;7.75;;;;;;;;;;5070981;28;20450;-37
2023/04/14 10:35:09;;;;;;;17.20;8.20;;;;;;;;;;5070835;28;20036;-36
2023/04/14 10:37:36;;;;;;;15.52;8.20;;;;;;;;;;5071149;28;20021;-37
2023/04/14 10:40:06;;;;;;;13.68;7.63;;;;;;;;;;5071140;28;20025;-37
2023/04/14 10:43:06;;;;;;;13.90;7.30;;;;;;;;;;5070975;28;20037;-36
2023/04/14 10:45:33;;;;;;;15.75;7.18;;;;;;;;;;5016584;28;20103;-36
2023/04/14 10:48:00;;;;;;;14.35;7.35;;;;;;;;;;5070953;28;20032;-36
2023/04/14 10:50:29;;;;;;;13.98;7.05;;;;;;;;;;5070992;28;20028;-37
2023/04/14 10:52:57;;;;;;;12.55;6.82;;;;;;;;;;5070692;28;20063;-38
2023/04/14 10:55:25;;;;;;;14.07;7.03;;;;;;;;;;5070772;28;20114;-37
2023/04/14 10:57:53;;;;;;;16.50;6.72;;;;;;;;;;5070932;28;20028;-36
2023/04/14 11:00:28;;;;;;;13.95;6.25;;;;;;;;;;5073706;28;20074;-37
2023/04/14 11:02:56;;;;;;;15.20;6.55;;;;;;;;;;5074110;28;20059;-37
2023/04/14 11:05:23;;;;;;;12.90;5.80;;;;;;;;;;5074370;28;20386;-37
2023/04/14 11:07:57;;;;;;;14.68;5.60;;;;;;;;;;5074337;28;20070;-37
2023/04/14 11:10:25;;;;;;;11.38;5.95;;;;;;;;;;5067482;28;20121;-38
2023/04/14 11:12:56;;;;;;;11.60;5.90;;;;;;;;;;5073910;28;20025;-38
2023/04/14 11:15:23;;;;;;;13.32;5.75;;;;;;;;;;5073969;28;20024;-38
2023/04/14 11:17:51;;;;;;;30.27;5.88;;;;;;;;;;5073369;28;20025;-41
2023/04/14 11:20:24;;;;;;;27.30;6.03;;;;;;;;;;5066269;28;20463;-38
2023/04/14 11:22:51;;;;;;;24.60;5.63;;;;;;;;;;5063959;28;20032;-38
2023/04/14 11:25:19;;;;;;;80.57;7.70;;;;;;;;;;5062915;28;20055;-39
2023/04/14 11:27:47;;;;;;;431.08;28.45;;;;;;;;;;5062105;28;20474;-36
2023/04/14 11:30:15;;;;;;;151.15;13.70;;;;;;;;;;5062493;28;20104;-32
2023/04/14 11:32:46;;;;;;;131.82;13.35;;;;;;;;;;5044395;28;20024;-33
2023/04/14 11:35:14;;;;;;;152.25;13.35;;;;;;;;;;5053439;28;20108;-34
2023/04/14 11:37:41;;;;;;;112.75;12.52;;;;;;;;;;5053640;28;20054;-34
2023/04/14 11:40:09;;;;;;;74.15;8.68;;;;;;;;;;5053531;28;20095;-34
2023/04/14 11:42:37;;;;;;;82.40;7.30;;;;;;;;;;5053300;28;20158;-33
2023/04/14 11:45:04;;;;;;;55.05;7.88;;;;;;;;;;5053372;28;20387;-33
2023/04/14 11:47:31;;;;;;;68.28;9.00;;;;;;;;;;5053392;28;20027;-33
2023/04/14 11:50:01;;;;;;;49.55;8.25;;;;;;;;;;5053395;28;20025;-33
2023/04/14 11:52:35;;;;;;;74.45;8.50;;;;;;;;;;5058911;28;20028;-39
2023/04/14 11:55:02;;;;;;;62.60;8.40;;;;;;;;;;5073132;28;20039;-37
2023/04/14 11:57:29;;;;;;;64.10;8.48;;;;;;;;;;5073127;28;20421;-39
2023/04/14 11:59:56;;;;;;;63.63;8.32;;;;;;;;;;5073261;28;20017;-38
2023/04/14 12:02:23;;;;;;;64.38;9.20;;;;;;;;;;5073110;28;20060;-38
2023/04/14 12:04:53;;;;;;;60.78;7.47;;;;;;;;;;5069567;28;20033;-35
2023/04/14 12:07:22;;;;;;;57.95;7.78;;;;;;;;;;5060889;28;20121;-41
2023/04/14 12:09:51;;;;;;;63.50;8.52;;;;;;;;;;5052784;28;20095;-39
2023/04/14 12:12:19;;;;;;;42.65;7.40;;;;;;;;;;5052516;28;20021;-35
2023/04/14 12:14:48;;;;;;;51.40;7.80;;;;;;;;;;5052883;28;20021;-36
2023/04/14 12:17:17;;;;;;;47.50;7.10;;;;;;;;;;5052895;28;20021;-35
2023/04/14 12:19:47;;;;;;;54.85;7.40;;;;;;;;;;5052635;28;20029;-42
2023/04/14 12:22:15;;;;;;;53.20;8.07;;;;;;;;;;5052815;28;20375;-35
2023/04/14 12:24:43;;;;;;;40.35;6.68;;;;;;;;;;5054738;28;20505;-36
2023/04/14 12:27:10;;;;;;;46.67;6.40;;;;;;;;;;5055276;28;20040;-36
2023/04/14 12:29:37;;;;;;;38.13;6.05;;;;;;;;;;5052678;28;20507;-36
2023/04/14 12:32:14;;;;;;;160.18;16.50;;;;;;;;;;5054118;28;20036;-40
2023/04/14 12:34:41;;;;;;;145.25;16.33;;;;;;;;;;5059974;28;20118;-34
2023/04/14 12:37:08;;;;;;;132.23;15.35;;;;;;;;;;5085638;28;20043;-42
2023/04/14 12:39:52;;;;;;;101.03;11.95;;;;;;;;;;5072317;28;20073;-41
2023/04/14 12:42:19;;;;;;;72.30;8.82;;;;;;;;;;5072117;28;20096;-38
2023/04/14 12:44:59;;;;;;;74.43;8.45;;;;;;;;;;5072183;28;20024;-41
2023/04/14 12:47:27;;;;;;;61.60;7.43;;;;;;;;;;5072120;28;20028;-41
2023/04/14 12:49:55;;;;;;;34.50;6.40;;;;;;;;;;5068649;28;20041;-35
2023/04/14 12:52:37;;;;;;;49.67;6.53;;;;;;;;;;5071884;28;20463;-34
2023/04/14 12:55:07;;;;;;;135.43;17.45;;;;;;;;;;5072104;28;20052;-34
2023/04/14 12:57:35;;;;;;;68.45;11.50;;;;;;;;;;5072076;28;20033;-35
2023/04/14 13:00:03;;;;;;;61.42;10.05;;;;;;;;;;5071951;28;20540;-34
2023/04/14 13:02:32;;;;;;;52.65;8.05;;;;;;;;;;5071426;28;20108;-39
2023/04/14 13:04:59;;;;;;;48.00;8.27;;;;;;;;;;5071632;28;20032;-42
2023/04/14 13:07:26;;;;;;;36.95;7.65;;;;;;;;;;5071643;28;20024;-40
2023/04/14 13:09:53;;;;;;;30.90;6.97;;;;;;;;;;5071694;28;20086;-36
2023/04/14 13:12:20;;;;;;;35.65;6.82;;;;;;;;;;5071561;28;20028;-38
2023/04/14 13:14:47;;;;;;;37.08;6.47;;;;;;;;;;5053051;28;20028;-34
2023/04/14 13:17:14;;;;;;;35.83;6.43;;;;;;;;;;5071501;28;20111;-36
2023/04/14 13:19:41;;;;;;;31.05;5.72;;;;;;;;;;5071707;28;20028;-35
2023/04/14 13:22:08;;;;;;;30.70;4.63;;;;;;;;;;5071606;28;20104;-36
2023/04/14 13:24:35;;;;;;;29.63;4.88;;;;;;;;;;5071359;28;20088;-35
2023/04/14 13:27:02;;;;;;;25.35;5.07;;;;;;;;;;5053513;28;20056;-36
2023/04/14 13:29:31;;;;;;;31.88;4.55;;;;;;;;;;5071571;28;20067;-36
2023/04/14 13:31:59;;;;;;;32.17;4.93;;;;;;;;;;5071396;28;20024;-36
2023/04/14 13:34:26;;;;;;;60.72;5.78;;;;;;;;;;5071310;28;20039;-35
2023/04/14 13:36:54;;;;;;;40.65;3.65;;;;;;;;;;5071548;28;20016;-36
2023/04/14 13:39:21;;;;;;;40.42;4.03;;;;;;;;;;5071449;28;20024;-35
2023/04/14 13:41:48;;;;;;;36.70;3.45;;;;;;;;;;5071437;28;20467;-34
2023/04/14 13:44:17;;;;;;;26.83;3.22;;;;;;;;;;5071287;28;20020;-34
2023/04/14 13:46:44;;;;;;;30.40;3.13;;;;;;;;;;5071254;28;20028;-35
2023/04/14 13:49:11;;;;;;;32.30;3.38;;;;;;;;;;5071225;28;20036;-34
2023/04/14 13:51:41;;;;;;;30.02;2.85;;;;;;;;;;5071404;28;20035;-35
2023/04/14 13:54:08;;;;;;;40.03;4.05;;;;;;;;;;5071102;28;20039;-35
2023/04/14 13:56:35;;;;;;;33.05;3.22;;;;;;;;;;5071327;28;20074;-35
2023/04/14 13:59:02;;;;;;;51.42;4.53;;;;;;;;;;5071359;28;20482;-34
2023/04/14 14:01:29;;;;;;;32.92;3.22;;;;;;;;;;5071232;28;20482;-34
2023/04/14 14:03:56;;;;;;;27.35;2.72;;;;;;;;;;5070282;28;20544;-37
2023/04/14 14:06:23;;;;;;;41.75;3.05;;;;;;;;;;5070792;28;20450;-35
2023/04/14 14:09:01;;;;;;;30.25;3.13;;;;;;;;;;5070855;28;20028;-38
2023/04/14 14:11:28;;;;;;;44.33;4.07;;;;;;;;;;5070794;28;20041;-37
2023/04/14 14:13:55;;;;;;;36.10;3.63;;;;;;;;;;5070531;28;20020;-34
2023/04/14 14:16:22;;;;;;;27.20;3.15;;;;;;;;;;5070811;28;20036;-36
2023/04/14 14:18:50;;;;;;;31.75;3.53;;;;;;;;;;5070793;28;20024;-37
2023/04/14 14:21:17;;;;;;;25.85;3.20;;;;;;;;;;5070482;28;20029;-34
2023/04/14 14:23:44;;;;;;;23.50;2.45;;;;;;;;;;5070486;28;20473;-33
2023/04/14 14:26:12;;;;;;;33.83;3.70;;;;;;;;;;5070694;28;20036;-34
2023/04/14 14:28:40;;;;;;;44.60;4.38;;;;;;;;;;5070708;28;20457;-37
2023/04/14 14:31:07;;;;;;;38.30;4.13;;;;;;;;;;5070599;28;20031;-37
2023/04/14 14:33:34;;;;;;;64.65;5.57;;;;;;;;;;5071133;28;20021;-38